Time,TemperatureF,DewpointF,PressureIn,WindDirection,WindDirectionDegrees,WindSpeedMPH,WindSpeedGustMPH,Humidity,HourlyPrecipIn,Conditions,Clouds,dailyrainin,SolarRadiationWatts/m^2,SoftwareType,DateUTC
2013-05-08 00:02:00,54.3,44.0,30.06,East,88,0.0,0.0,68,0.00,,,0.00,0,weatherlink.com 1.10,2013-05-08 04:02:00,
2013-05-08 00:17:00,53.9,41.0,30.06,East,88,0.0,0.0,63,0.00,,,0.00,0,weatherlink.com 1.10,2013-05-08 04:17:00,
2013-05-08 00:32:00,55.0,39.0,30.06,East,88,0.0,0.0,55,0.00,,,0.00,0,weatherlink.com 1.10,2013-05-08 04:32:00,
2013-05-08 00:47:00,55.3,39.0,30.06,East,88,0.0,0.0,55,0.00,,,0.00,0,weatherlink.com 1.10,2013-05-08 04:47:00,
2013-05-08 01:02:00,54.4,39.0,30.06,East,88,0.0,1.0,57,0.00,,,0.00,0,weatherlink.com 1.10,2013-05-08 05:02:00,
2013-05-08 01:17:00,54.1,39.0,30.06,East,88,0.0,0.0,58,0.00,,,0.00,0,weatherlink.com 1.10,2013-05-08 05:17:00,
2013-05-08 01:32:00,54.4,40.0,30.06,East,88,0.0,0.0,59,0.00,,,0.00,0,weatherlink.com 1.10,2013-05-08 05:32:00,
2013-05-08 01:47:00,54.1,39.0,30.06,East,88,0.0,0.0,58,0.00,,,0.00,0,weatherlink.com 1.10,2013-05-08 05:47:00,
2013-05-08 02:02:00,54.1,39.0,30.06,East,88,0.0,0.0,58,0.00,,,0.00,0,weatherlink.com 1.10,2013-05-08 06:02:00,
2013-05-08 02:17:00,53.3,39.0,30.06,East,88,0.0,0.0,59,0.00,,,0.00,0,weatherlink.com 1.10,2013-05-08 06:17:00,
2013-05-08 02:33:00,52.4,39.0,30.06,East,88,0.0,0.0,60,0.00,,,0.00,0,weatherlink.com 1.10,2013-05-08 06:33:00,
2013-05-08 02:48:00,51.5,39.0,30.06,East,88,0.0,0.0,63,0.00,,,0.00,0,weatherlink.com 1.10,2013-05-08 06:48:00,
2013-05-08 03:03:00,50.8,40.0,30.07,East,88,0.0,0.0,66,0.00,,,0.00,0,weatherlink.com 1.10,2013-05-08 07:03:00,
2013-05-08 03:18:00,50.2,40.0,30.07,East,88,0.0,0.0,69,0.00,,,0.00,0,weatherlink.com 1.10,2013-05-08 07:18:00,
2013-05-08 03:33:00,49.4,40.0,30.07,East,88,0.0,0.0,69,0.00,,,0.00,0,weatherlink.com 1.10,2013-05-08 07:33:00,
2013-05-08 03:48:00,48.7,40.0,30.07,East,88,0.0,0.0,72,0.00,,,0.00,0,weatherlink.com 1.10,2013-05-08 07:48:00,
2013-05-08 04:03:00,48.2,41.0,30.08,East,87,0.0,0.0,75,0.00,,,0.00,0,weatherlink.com 1.10,2013-05-08 08:03:00,
2013-05-08 04:18:00,48.4,41.0,30.08,East,87,0.0,0.0,76,0.00,,,0.00,0,weatherlink.com 1.10,2013-05-08 08:18:00,
2013-05-08 04:33:00,48.6,43.0,30.08,East,88,0.0,0.0,80,0.00,,,0.00,0,weatherlink.com 1.10,2013-05-08 08:33:00,
2013-05-08 04:48:00,48.3,43.0,30.08,East,88,0.0,0.0,81,0.00,,,0.00,0,weatherlink.com 1.10,2013-05-08 08:48:00,
2013-05-08 05:03:00,47.8,43.0,30.08,East,88,0.0,0.0,82,0.00,,,0.00,0,weatherlink.com 1.10,2013-05-08 09:03:00,
2013-05-08 05:18:00,47.8,43.0,30.08,East,88,0.0,0.0,83,0.00,,,0.00,0,weatherlink.com 1.10,2013-05-08 09:18:00,
2013-05-08 05:33:00,48.1,43.0,30.08,East,88,0.0,0.0,83,0.00,,,0.00,5,weatherlink.com 1.10,2013-05-08 09:33:00,
2013-05-08 05:48:00,47.9,43.0,30.08,East,88,0.0,0.0,84,0.00,,,0.00,14,weatherlink.com 1.10,2013-05-08 09:48:00,
2013-05-08 06:03:00,48.6,44.0,30.08,East,88,0.0,0.0,85,0.00,,,0.00,26,weatherlink.com 1.10,2013-05-08 10:03:00,
2013-05-08 06:18:00,50.6,45.0,30.09,East,88,0.0,0.0,81,0.00,,,0.00,33,weatherlink.com 1.10,2013-05-08 10:18:00,
2013-05-08 06:33:00,53.0,46.0,30.09,East,88,0.0,0.0,78,0.00,,,0.00,40,weatherlink.com 1.10,2013-05-08 10:33:00,
2013-05-08 06:48:00,55.2,47.0,30.10,East,88,0.0,0.0,74,0.00,,,0.00,44,weatherlink.com 1.10,2013-05-08 10:48:00,
2013-05-08 07:03:00,56.6,48.0,30.10,East,88,0.0,0.0,72,0.00,,,0.00,47,weatherlink.com 1.10,2013-05-08 11:03:00,
2013-05-08 07:18:00,58.4,48.0,30.10,East,88,0.0,0.0,69,0.00,,,0.00,51,weatherlink.com 1.10,2013-05-08 11:18:00,
2013-05-08 07:33:00,59.4,49.0,30.10,East,88,1.0,2.0,69,0.00,,,0.00,53,weatherlink.com 1.10,2013-05-08 11:33:00,
2013-05-08 07:48:00,60.3,50.0,30.11,East,95,2.0,3.0,69,0.00,,,0.00,56,weatherlink.com 1.10,2013-05-08 11:48:00,
2013-05-08 08:03:00,61.7,51.0,30.11,ESE,119,0.0,3.0,69,0.00,,,0.00,69,weatherlink.com 1.10,2013-05-08 12:03:00,
2013-05-08 08:19:00,63.0,53.0,30.11,ESE,107,1.0,5.0,70,0.00,,,0.00,56,weatherlink.com 1.10,2013-05-08 12:19:00,
2013-05-08 08:34:00,64.8,53.0,30.11,ESE,103,3.0,4.0,66,0.00,,,0.00,58,weatherlink.com 1.10,2013-05-08 12:34:00,
2013-05-08 08:49:00,66.3,53.0,30.11,SSE,163,1.0,6.0,63,0.00,,,0.00,58,weatherlink.com 1.10,2013-05-08 12:49:00,
2013-05-08 09:04:00,67.3,54.0,30.11,ESE,107,0.0,5.0,63,0.00,,,0.00,58,weatherlink.com 1.10,2013-05-08 13:04:00,
2013-05-08 09:19:00,68.6,54.0,30.11,SSE,165,1.0,6.0,61,0.00,,,0.00,60,weatherlink.com 1.10,2013-05-08 13:19:00,
2013-05-08 09:34:00,69.8,54.0,30.10,ESE,105,1.0,5.0,57,0.00,,,0.00,63,weatherlink.com 1.10,2013-05-08 13:34:00,
2013-05-08 09:49:00,70.5,54.0,30.10,ENE,73,0.0,5.0,56,0.00,,,0.00,62,weatherlink.com 1.10,2013-05-08 13:49:00,
2013-05-08 10:04:00,71.4,54.0,30.10,East,97,3.0,7.0,54,0.00,,,0.00,63,weatherlink.com 1.10,2013-05-08 14:04:00,
2013-05-08 10:19:00,72.4,54.0,30.09,ENE,71,0.0,8.0,52,0.00,,,0.00,70,weatherlink.com 1.10,2013-05-08 14:19:00,
2013-05-08 10:34:00,73.5,54.0,30.09,East,90,1.0,6.0,51,0.00,,,0.00,541,weatherlink.com 1.10,2013-05-08 14:34:00,
2013-05-08 10:49:00,73.8,51.0,30.08,ENE,78,2.0,10.0,45,0.00,,,0.00,589,weatherlink.com 1.10,2013-05-08 14:49:00,
2013-05-08 11:04:00,74.2,50.0,30.08,South,181,2.0,14.0,42,0.00,,,0.00,628,weatherlink.com 1.10,2013-05-08 15:04:00,
2013-05-08 11:19:00,74.5,49.0,30.08,SW,223,6.0,15.0,41,0.00,,,0.00,643,weatherlink.com 1.10,2013-05-08 15:19:00,
2013-05-08 11:34:00,74.4,50.0,30.08,South,190,1.0,15.0,43,0.00,,,0.00,708,weatherlink.com 1.10,2013-05-08 15:34:00,
2013-05-08 11:49:00,74.2,50.0,30.07,SSE,163,2.0,14.0,42,0.00,,,0.00,679,weatherlink.com 1.10,2013-05-08 15:49:00,
2013-05-08 12:04:00,74.5,49.0,30.07,NE,48,3.0,13.0,41,0.00,,,0.00,742,weatherlink.com 1.10,2013-05-08 16:04:00,
2013-05-08 12:19:00,74.5,50.0,30.06,ESE,115,3.0,14.0,42,0.00,,,0.00,756,weatherlink.com 1.10,2013-05-08 16:19:00,
2013-05-08 12:34:00,75.1,49.0,30.06,SE,144,12.0,13.0,40,0.00,,,0.00,837,weatherlink.com 1.10,2013-05-08 16:34:00,
2013-05-08 12:49:00,76.1,49.0,30.05,SE,126,2.0,10.0,39,0.00,,,0.00,824,weatherlink.com 1.10,2013-05-08 16:49:00,
2013-05-08 13:04:00,76.6,47.0,30.05,ESE,117,8.0,11.0,35,0.00,,,0.00,888,weatherlink.com 1.10,2013-05-08 17:04:00,
2013-05-08 13:19:00,76.0,42.0,30.05,East,89,0.0,8.0,30,0.00,,,0.00,633,weatherlink.com 1.10,2013-05-08 17:19:00,
2013-05-08 13:34:00,76.7,41.0,30.04,ENE,75,8.0,13.0,28,0.00,,,0.00,814,weatherlink.com 1.10,2013-05-08 17:34:00,
2013-05-08 13:50:00,77.3,41.0,30.04,East,81,5.0,10.0,27,0.00,,,0.00,921,weatherlink.com 1.10,2013-05-08 17:50:00,
2013-05-08 14:05:00,77.2,42.0,30.04,ENE,73,9.0,13.0,28,0.00,,,0.00,981,weatherlink.com 1.10,2013-05-08 18:05:00,
2013-05-08 14:20:00,77.2,43.0,30.04,East,87,6.0,18.0,29,0.00,,,0.00,469,weatherlink.com 1.10,2013-05-08 18:20:00,
2013-05-08 14:35:00,77.3,40.0,30.03,SE,134,7.0,17.0,26,0.00,,,0.00,503,weatherlink.com 1.10,2013-05-08 18:35:00,
2013-05-08 14:50:00,76.3,44.0,30.03,East,98,7.0,16.0,32,0.00,,,0.00,316,weatherlink.com 1.10,2013-05-08 18:50:00,
2013-05-08 15:05:00,75.5,48.0,30.02,ESE,119,3.0,11.0,38,0.00,,,0.00,225,weatherlink.com 1.10,2013-05-08 19:05:00,
2013-05-08 15:20:00,74.5,49.0,30.02,WSW,251,0.0,9.0,41,0.00,,,0.00,274,weatherlink.com 1.10,2013-05-08 19:20:00,
2013-05-08 15:35:00,73.6,51.0,30.02,SE,146,2.0,9.0,45,0.00,,,0.00,304,weatherlink.com 1.10,2013-05-08 19:35:00,
2013-05-08 15:50:00,72.9,53.0,30.02,ENE,72,9.0,14.0,50,0.00,,,0.00,322,weatherlink.com 1.10,2013-05-08 19:50:00,
2013-05-08 16:05:00,72.3,52.0,30.02,East,96,2.0,10.0,49,0.00,,,0.00,301,weatherlink.com 1.10,2013-05-08 20:05:00,
2013-05-08 16:20:00,73.2,52.0,30.01,ENE,67,0.0,8.0,48,0.00,,,0.00,359,weatherlink.com 1.10,2013-05-08 20:20:00,
2013-05-08 16:35:00,72.9,53.0,30.01,East,81,7.0,14.0,49,0.00,,,0.00,269,weatherlink.com 1.10,2013-05-08 20:35:00,
2013-05-08 16:50:00,72.3,52.0,30.01,ENE,78,7.0,14.0,49,0.00,,,0.00,144,weatherlink.com 1.10,2013-05-08 20:50:00,
2013-05-08 17:05:00,71.2,52.0,30.01,ESE,109,3.0,10.0,51,0.00,,,0.00,123,weatherlink.com 1.10,2013-05-08 21:05:00,
2013-05-08 17:20:00,72.0,52.0,30.01,South,177,1.0,19.0,49,0.00,,,0.00,387,weatherlink.com 1.10,2013-05-08 21:20:00,
2013-05-08 17:35:00,70.9,51.0,30.01,East,85,1.0,15.0,49,0.00,,,0.00,160,weatherlink.com 1.10,2013-05-08 21:35:00,
2013-05-08 17:50:00,69.6,53.0,30.01,SE,128,1.0,11.0,55,0.00,,,0.00,86,weatherlink.com 1.10,2013-05-08 21:50:00,
2013-05-08 18:05:00,69.3,53.0,30.01,East,84,0.0,9.0,57,0.00,,,0.00,118,weatherlink.com 1.10,2013-05-08 22:05:00,
2013-05-08 18:20:00,69.3,54.0,30.01,ESE,110,0.0,5.0,58,0.00,,,0.00,98,weatherlink.com 1.10,2013-05-08 22:20:00,
2013-05-08 18:35:00,68.7,54.0,30.01,North,360,3.0,9.0,60,0.00,,,0.00,90,weatherlink.com 1.10,2013-05-08 22:35:00,
2013-05-08 18:50:00,68.1,54.0,30.01,East,94,1.0,7.0,61,0.00,,,0.00,54,weatherlink.com 1.10,2013-05-08 22:50:00,
2013-05-08 19:05:00,67.3,54.0,30.01,SSW,198,0.0,4.0,63,0.00,,,0.00,47,weatherlink.com 1.10,2013-05-08 23:05:00,
2013-05-08 19:20:00,66.7,54.0,30.01,WSW,239,0.0,3.0,65,0.00,,,0.00,42,weatherlink.com 1.10,2013-05-08 23:20:00,
2013-05-08 19:35:00,66.1,55.0,30.01,South,188,0.0,3.0,67,0.00,,,0.00,21,weatherlink.com 1.10,2013-05-08 23:35:00,
2013-05-08 19:50:00,65.9,52.0,30.02,ENE,64,2.0,8.0,62,0.00,,,0.00,5,weatherlink.com 1.10,2013-05-08 23:50:00,
2013-05-08 20:05:00,65.8,52.0,30.02,South,182,2.0,7.0,61,0.00,,,0.00,0,weatherlink.com 1.10,2013-05-09 00:05:00,
2013-05-08 20:20:00,65.4,52.0,30.02,ENE,71,1.0,9.0,62,0.00,,,0.00,0,weatherlink.com 1.10,2013-05-09 00:20:00,
2013-05-08 20:35:00,64.6,52.0,30.02,NE,39,0.0,9.0,65,0.00,,,0.00,0,weatherlink.com 1.10,2013-05-09 00:35:00,
2013-05-08 20:50:00,63.6,54.0,30.02,SSW,203,0.0,4.0,71,0.00,,,0.00,0,weatherlink.com 1.10,2013-05-09 00:50:00,
2013-05-08 21:05:00,62.3,54.0,30.02,SSW,200,0.0,3.0,75,0.00,,,0.00,0,weatherlink.com 1.10,2013-05-09 01:05:00,
2013-05-08 21:20:00,61.6,54.0,30.02,West,263,0.0,2.0,77,0.00,,,0.00,0,weatherlink.com 1.10,2013-05-09 01:20:00,
2013-05-08 21:35:00,61.1,55.0,30.02,ESE,103,0.0,3.0,79,0.00,,,0.00,0,weatherlink.com 1.10,2013-05-09 01:35:00,
2013-05-08 21:50:00,60.9,55.0,30.02,West,265,0.0,1.0,80,0.00,,,0.00,0,weatherlink.com 1.10,2013-05-09 01:50:00,
2013-05-08 22:05:00,60.9,54.0,30.02,ESE,115,0.0,2.0,79,0.00,,,0.00,0,weatherlink.com 1.10,2013-05-09 02:05:00,
2013-05-08 22:20:00,60.8,54.0,30.02,SSW,213,0.0,3.0,79,0.00,,,0.00,0,weatherlink.com 1.10,2013-05-09 02:20:00,
2013-05-08 22:35:00,60.5,54.0,30.02,West,259,0.0,1.0,80,0.00,,,0.00,0,weatherlink.com 1.10,2013-05-09 02:35:00,
2013-05-08 22:50:00,60.9,55.0,30.02,South,182,0.0,4.0,80,0.00,,,0.00,0,weatherlink.com 1.10,2013-05-09 02:50:00,
2013-05-08 23:05:00,61.1,55.0,30.01,East,88,0.0,7.0,79,0.00,,,0.00,0,weatherlink.com 1.10,2013-05-09 03:05:00,
2013-05-08 23:20:00,60.9,55.0,30.01,SE,139,0.0,2.0,80,0.00,,,0.00,0,weatherlink.com 1.10,2013-05-09 03:20:00,
2013-05-08 23:35:00,60.5,55.0,30.00,NE,34,0.0,2.0,81,0.00,,,0.00,0,weatherlink.com 1.10,2013-05-09 03:35:00,
2013-05-08 23:50:00,60.3,55.0,30.00,ESE,113,0.0,2.0,82,0.00,,,0.00,0,weatherlink.com 1.10,2013-05-09 03:50:00,